Terminal Aerodrome Forecast
Issued by NWS North Platte, NE

Home | Current Version | Previous Version | Graphics & Text | Print | Product List | Glossary On
Versions: 1 2 3 4 5 6 7 8 9 10 11 12 13 14 15 16
000
FTUS43 KLBF 291600 AAB
TAFVTN
TAF AMD
KVTN 291605Z 2916/3012 08008KT 1SM BR OVC003
      TEMPO 2916/2917 2SM BR OVC005
     FM291700 10010KT 4SM BR OVC007
     FM291800 12010G17KT P6SM OVC015
     FM292000 12015G22KT P6SM VCSH SCT025 OVC050
     FM300300 12020G28KT 3SM -SHRA BR BKN015
     FM300900 15020G28KT P6SM OVC015=

USA.gov is the U.S. government's official web portal to all federal, state and local government web resources and services.